sensor_id;sensor_type;location;lat;lon;timestamp;P1;durP1;ratioP1;P2;durP2;ratioP2
35126;SDS011;21300;52.006;5.798;2024-03-06T00:01:47;26.65;;;14.43;;
35126;SDS011;21300;52.006;5.798;2024-03-06T00:04:13;25.10;;;15.55;;
35126;SDS011;21300;52.006;5.798;2024-03-06T00:06:39;26.85;;;15.73;;
35126;SDS011;21300;52.006;5.798;2024-03-06T00:09:04;24.58;;;14.77;;
35126;SDS011;21300;52.006;5.798;2024-03-06T00:11:30;24.27;;;14.80;;
35126;SDS011;21300;52.006;5.798;2024-03-06T00:13:56;23.23;;;13.73;;
35126;SDS011;21300;52.006;5.798;2024-03-06T00:16:21;23.67;;;13.68;;
35126;SDS011;21300;52.006;5.798;2024-03-06T00:18:47;27.80;;;15.63;;
35126;SDS011;21300;52.006;5.798;2024-03-06T00:21:13;25.23;;;13.95;;
35126;SDS011;21300;52.006;5.798;2024-03-06T00:23:38;22.85;;;13.23;;
35126;SDS011;21300;52.006;5.798;2024-03-06T00:26:04;24.05;;;13.80;;
35126;SDS011;21300;52.006;5.798;2024-03-06T00:28:30;26.35;;;15.35;;
35126;SDS011;21300;52.006;5.798;2024-03-06T00:30:56;25.05;;;13.95;;
35126;SDS011;21300;52.006;5.798;2024-03-06T00:33:21;23.20;;;13.45;;
35126;SDS011;21300;52.006;5.798;2024-03-06T00:35:48;24.70;;;14.27;;
35126;SDS011;21300;52.006;5.798;2024-03-06T00:38:13;21.08;;;13.85;;
35126;SDS011;21300;52.006;5.798;2024-03-06T00:40:39;23.13;;;13.98;;
35126;SDS011;21300;52.006;5.798;2024-03-06T00:43:05;23.58;;;13.93;;
35126;SDS011;21300;52.006;5.798;2024-03-06T00:45:31;25.13;;;13.27;;
35126;SDS011;21300;52.006;5.798;2024-03-06T00:47:56;22.30;;;12.60;;
35126;SDS011;21300;52.006;5.798;2024-03-06T00:50:22;19.27;;;11.50;;
35126;SDS011;21300;52.006;5.798;2024-03-06T00:52:48;21.83;;;13.07;;
35126;SDS011;21300;52.006;5.798;2024-03-06T00:55:14;21.15;;;12.25;;
35126;SDS011;21300;52.006;5.798;2024-03-06T00:57:40;21.80;;;12.68;;
35126;SDS011;21300;52.006;5.798;2024-03-06T01:00:06;24.17;;;13.82;;
35126;SDS011;21300;52.006;5.798;2024-03-06T01:02:38;21.17;;;13.23;;
35126;SDS011;21300;52.006;5.798;2024-03-06T01:05:04;16.38;;;10.27;;
35126;SDS011;21300;52.006;5.798;2024-03-06T01:07:30;17.13;;;11.75;;
35126;SDS011;21300;52.006;5.798;2024-03-06T01:09:56;16.85;;;10.38;;
35126;SDS011;21300;52.006;5.798;2024-03-06T01:12:23;19.27;;;11.88;;
35126;SDS011;21300;52.006;5.798;2024-03-06T01:14:49;24.92;;;12.32;;
35126;SDS011;21300;52.006;5.798;2024-03-06T01:17:14;19.92;;;11.23;;
35126;SDS011;21300;52.006;5.798;2024-03-06T01:19:40;19.75;;;12.35;;
35126;SDS011;21300;52.006;5.798;2024-03-06T01:22:08;20.95;;;12.43;;
35126;SDS011;21300;52.006;5.798;2024-03-06T01:24:34;16.80;;;10.70;;
35126;SDS011;21300;52.006;5.798;2024-03-06T01:27:00;21.60;;;11.32;;
35126;SDS011;21300;52.006;5.798;2024-03-06T01:29:27;20.73;;;11.30;;
35126;SDS011;21300;52.006;5.798;2024-03-06T01:31:54;16.95;;;10.82;;
35126;SDS011;21300;52.006;5.798;2024-03-06T01:34:19;17.23;;;10.70;;
35126;SDS011;21300;52.006;5.798;2024-03-06T01:36:45;17.75;;;10.48;;
35126;SDS011;21300;52.006;5.798;2024-03-06T01:39:11;19.63;;;11.38;;
35126;SDS011;21300;52.006;5.798;2024-03-06T01:41:36;17.77;;;11.45;;
35126;SDS011;21300;52.006;5.798;2024-03-06T01:44:02;14.82;;;9.38;;
35126;SDS011;21300;52.006;5.798;2024-03-06T01:46:30;17.88;;;10.32;;
35126;SDS011;21300;52.006;5.798;2024-03-06T01:48:56;19.67;;;11.48;;
35126;SDS011;21300;52.006;5.798;2024-03-06T01:51:22;17.73;;;11.80;;
35126;SDS011;21300;52.006;5.798;2024-03-06T01:53:49;15.05;;;10.27;;
35126;SDS011;21300;52.006;5.798;2024-03-06T01:56:15;16.52;;;10.35;;
35126;SDS011;21300;52.006;5.798;2024-03-06T01:58:42;13.50;;;9.20;;
35126;SDS011;21300;52.006;5.798;2024-03-06T02:01:11;18.63;;;11.65;;
35126;SDS011;21300;52.006;5.798;2024-03-06T02:03:37;13.57;;;9.98;;
35126;SDS011;21300;52.006;5.798;2024-03-06T02:06:02;15.18;;;10.15;;
35126;SDS011;21300;52.006;5.798;2024-03-06T02:08:29;15.32;;;9.95;;
35126;SDS011;21300;52.006;5.798;2024-03-06T02:10:55;18.00;;;10.52;;
35126;SDS011;21300;52.006;5.798;2024-03-06T02:13:21;12.93;;;9.05;;
35126;SDS011;21300;52.006;5.798;2024-03-06T02:15:47;17.33;;;10.90;;
35126;SDS011;21300;52.006;5.798;2024-03-06T02:18:14;13.73;;;8.65;;
35126;SDS011;21300;52.006;5.798;2024-03-06T02:20:39;10.73;;;7.65;;
35126;SDS011;21300;52.006;5.798;2024-03-06T02:23:05;18.00;;;11.10;;
35126;SDS011;21300;52.006;5.798;2024-03-06T02:25:31;12.50;;;8.35;;
35126;SDS011;21300;52.006;5.798;2024-03-06T02:27:57;15.93;;;9.00;;
35126;SDS011;21300;52.006;5.798;2024-03-06T02:30:23;17.90;;;10.00;;
35126;SDS011;21300;52.006;5.798;2024-03-06T02:32:49;14.57;;;9.85;;
35126;SDS011;21300;52.006;5.798;2024-03-06T02:35:15;16.33;;;9.82;;
35126;SDS011;21300;52.006;5.798;2024-03-06T02:37:42;15.57;;;10.15;;
35126;SDS011;21300;52.006;5.798;2024-03-06T02:40:09;15.27;;;9.55;;
35126;SDS011;21300;52.006;5.798;2024-03-06T02:42:35;12.88;;;9.50;;
35126;SDS011;21300;52.006;5.798;2024-03-06T02:45:03;15.45;;;9.02;;
35126;SDS011;21300;52.006;5.798;2024-03-06T02:47:30;15.80;;;10.23;;
35126;SDS011;21300;52.006;5.798;2024-03-06T02:49:56;20.70;;;10.02;;
35126;SDS011;21300;52.006;5.798;2024-03-06T02:52:21;15.40;;;9.60;;
35126;SDS011;21300;52.006;5.798;2024-03-06T02:54:47;20.05;;;11.30;;
35126;SDS011;21300;52.006;5.798;2024-03-06T02:57:13;15.20;;;10.75;;
35126;SDS011;21300;52.006;5.798;2024-03-06T02:59:42;15.55;;;10.38;;
35126;SDS011;21300;52.006;5.798;2024-03-06T03:02:08;19.63;;;10.88;;
35126;SDS011;21300;52.006;5.798;2024-03-06T03:04:33;16.80;;;10.45;;
35126;SDS011;21300;52.006;5.798;2024-03-06T03:06:59;15.65;;;10.25;;
35126;SDS011;21300;52.006;5.798;2024-03-06T03:09:25;17.25;;;9.68;;
35126;SDS011;21300;52.006;5.798;2024-03-06T03:11:50;16.40;;;9.52;;
35126;SDS011;21300;52.006;5.798;2024-03-06T03:14:16;13.85;;;9.43;;
35126;SDS011;21300;52.006;5.798;2024-03-06T03:16:42;16.40;;;8.98;;
35126;SDS011;21300;52.006;5.798;2024-03-06T03:19:08;13.80;;;9.52;;
35126;SDS011;21300;52.006;5.798;2024-03-06T03:21:33;15.95;;;9.18;;
35126;SDS011;21300;52.006;5.798;2024-03-06T03:23:59;13.98;;;9.10;;
35126;SDS011;21300;52.006;5.798;2024-03-06T03:26:25;13.45;;;8.95;;
35126;SDS011;21300;52.006;5.798;2024-03-06T03:28:51;13.45;;;9.55;;
35126;SDS011;21300;52.006;5.798;2024-03-06T03:31:19;13.38;;;8.75;;
35126;SDS011;21300;52.006;5.798;2024-03-06T03:33:46;13.18;;;9.13;;
35126;SDS011;21300;52.006;5.798;2024-03-06T03:36:13;12.60;;;8.60;;
35126;SDS011;21300;52.006;5.798;2024-03-06T03:38:39;15.70;;;9.25;;
35126;SDS011;21300;52.006;5.798;2024-03-06T03:41:11;12.15;;;8.40;;
35126;SDS011;21300;52.006;5.798;2024-03-06T03:43:38;13.73;;;9.45;;
35126;SDS011;21300;52.006;5.798;2024-03-06T03:46:04;12.60;;;9.07;;
35126;SDS011;21300;52.006;5.798;2024-03-06T03:48:31;12.40;;;8.07;;
35126;SDS011;21300;52.006;5.798;2024-03-06T03:51:00;12.25;;;8.57;;
35126;SDS011;21300;52.006;5.798;2024-03-06T03:53:27;12.05;;;7.90;;
35126;SDS011;21300;52.006;5.798;2024-03-06T03:55:52;11.68;;;8.38;;
35126;SDS011;21300;52.006;5.798;2024-03-06T03:58:18;12.70;;;8.65;;
35126;SDS011;21300;52.006;5.798;2024-03-06T04:00:44;11.93;;;8.63;;
35126;SDS011;21300;52.006;5.798;2024-03-06T04:03:09;12.25;;;8.88;;
35126;SDS011;21300;52.006;5.798;2024-03-06T04:05:35;14.98;;;8.23;;
35126;SDS011;21300;52.006;5.798;2024-03-06T04:08:00;13.02;;;8.95;;
35126;SDS011;21300;52.006;5.798;2024-03-06T04:10:26;12.77;;;8.52;;
35126;SDS011;21300;52.006;5.798;2024-03-06T04:12:52;14.25;;;8.20;;
35126;SDS011;21300;52.006;5.798;2024-03-06T04:15:18;14.25;;;9.43;;
35126;SDS011;21300;52.006;5.798;2024-03-06T04:17:44;13.68;;;9.13;;
35126;SDS011;21300;52.006;5.798;2024-03-06T04:20:10;13.88;;;8.77;;
35126;SDS011;21300;52.006;5.798;2024-03-06T04:22:37;13.18;;;8.27;;
35126;SDS011;21300;52.006;5.798;2024-03-06T04:25:03;12.88;;;8.52;;
35126;SDS011;21300;52.006;5.798;2024-03-06T04:27:30;13.93;;;9.48;;
35126;SDS011;21300;52.006;5.798;2024-03-06T04:29:55;13.65;;;9.63;;
35126;SDS011;21300;52.006;5.798;2024-03-06T04:32:21;15.30;;;9.57;;
35126;SDS011;21300;52.006;5.798;2024-03-06T04:34:47;13.77;;;8.35;;
35126;SDS011;21300;52.006;5.798;2024-03-06T04:37:12;15.52;;;9.57;;
35126;SDS011;21300;52.006;5.798;2024-03-06T04:39:38;18.48;;;11.52;;
35126;SDS011;21300;52.006;5.798;2024-03-06T04:42:04;14.57;;;8.52;;
35126;SDS011;21300;52.006;5.798;2024-03-06T04:44:33;13.80;;;9.38;;
35126;SDS011;21300;52.006;5.798;2024-03-06T04:46:59;12.45;;;8.50;;
35126;SDS011;21300;52.006;5.798;2024-03-06T04:49:24;13.25;;;8.95;;
35126;SDS011;21300;52.006;5.798;2024-03-06T04:51:51;12.77;;;8.45;;
35126;SDS011;21300;52.006;5.798;2024-03-06T04:54:16;13.93;;;8.38;;
35126;SDS011;21300;52.006;5.798;2024-03-06T04:56:42;15.40;;;8.02;;
35126;SDS011;21300;52.006;5.798;2024-03-06T04:59:07;14.73;;;9.25;;
35126;SDS011;21300;52.006;5.798;2024-03-06T05:01:33;16.58;;;9.98;;
35126;SDS011;21300;52.006;5.798;2024-03-06T05:03:59;15.02;;;8.98;;
35126;SDS011;21300;52.006;5.798;2024-03-06T05:06:24;17.45;;;10.38;;
35126;SDS011;21300;52.006;5.798;2024-03-06T05:08:50;16.75;;;10.65;;
35126;SDS011;21300;52.006;5.798;2024-03-06T05:11:21;16.50;;;10.07;;
35126;SDS011;21300;52.006;5.798;2024-03-06T05:13:47;18.08;;;10.73;;
35126;SDS011;21300;52.006;5.798;2024-03-06T05:16:14;16.17;;;9.40;;
35126;SDS011;21300;52.006;5.798;2024-03-06T05:18:39;15.60;;;9.43;;
35126;SDS011;21300;52.006;5.798;2024-03-06T05:21:05;17.67;;;10.43;;
35126;SDS011;21300;52.006;5.798;2024-03-06T05:23:31;15.95;;;9.18;;
35126;SDS011;21300;52.006;5.798;2024-03-06T05:25:56;13.55;;;8.85;;
35126;SDS011;21300;52.006;5.798;2024-03-06T05:28:22;16.92;;;9.90;;
35126;SDS011;21300;52.006;5.798;2024-03-06T05:30:48;15.57;;;9.88;;
35126;SDS011;21300;52.006;5.798;2024-03-06T05:33:14;17.25;;;10.27;;
35126;SDS011;21300;52.006;5.798;2024-03-06T05:35:39;17.15;;;9.82;;
35126;SDS011;21300;52.006;5.798;2024-03-06T05:38:05;18.40;;;11.35;;
35126;SDS011;21300;52.006;5.798;2024-03-06T05:40:32;15.57;;;9.50;;
35126;SDS011;21300;52.006;5.798;2024-03-06T05:43:02;16.38;;;9.73;;
35126;SDS011;21300;52.006;5.798;2024-03-06T05:45:28;17.05;;;9.48;;
35126;SDS011;21300;52.006;5.798;2024-03-06T05:47:54;17.15;;;10.55;;
35126;SDS011;21300;52.006;5.798;2024-03-06T05:50:19;15.75;;;9.43;;
35126;SDS011;21300;52.006;5.798;2024-03-06T05:52:45;17.40;;;9.20;;
35126;SDS011;21300;52.006;5.798;2024-03-06T05:55:11;16.58;;;9.30;;
35126;SDS011;21300;52.006;5.798;2024-03-06T05:57:36;14.15;;;9.40;;
35126;SDS011;21300;52.006;5.798;2024-03-06T06:00:02;15.27;;;9.27;;
35126;SDS011;21300;52.006;5.798;2024-03-06T06:02:33;17.05;;;9.70;;
35126;SDS011;21300;52.006;5.798;2024-03-06T06:04:59;15.27;;;9.82;;
35126;SDS011;21300;52.006;5.798;2024-03-06T06:07:24;15.38;;;9.30;;
35126;SDS011;21300;52.006;5.798;2024-03-06T06:09:50;17.90;;;10.55;;
35126;SDS011;21300;52.006;5.798;2024-03-06T06:12:15;14.50;;;9.43;;
35126;SDS011;21300;52.006;5.798;2024-03-06T06:14:41;16.52;;;10.88;;
35126;SDS011;21300;52.006;5.798;2024-03-06T06:17:07;19.13;;;10.77;;
35126;SDS011;21300;52.006;5.798;2024-03-06T06:19:32;16.95;;;9.75;;
35126;SDS011;21300;52.006;5.798;2024-03-06T06:21:58;16.52;;;9.52;;
35126;SDS011;21300;52.006;5.798;2024-03-06T06:24:24;16.45;;;9.02;;
35126;SDS011;21300;52.006;5.798;2024-03-06T06:26:50;15.63;;;9.48;;
35126;SDS011;21300;52.006;5.798;2024-03-06T06:29:15;14.45;;;9.35;;
35126;SDS011;21300;52.006;5.798;2024-03-06T06:31:41;15.75;;;9.60;;
35126;SDS011;21300;52.006;5.798;2024-03-06T06:34:07;15.80;;;8.90;;
35126;SDS011;21300;52.006;5.798;2024-03-06T06:36:33;15.40;;;8.10;;
35126;SDS011;21300;52.006;5.798;2024-03-06T06:38:58;17.67;;;10.27;;
35126;SDS011;21300;52.006;5.798;2024-03-06T06:41:24;16.85;;;9.95;;
35126;SDS011;21300;52.006;5.798;2024-03-06T06:43:50;17.50;;;10.27;;
35126;SDS011;21300;52.006;5.798;2024-03-06T06:46:23;15.13;;;9.07;;
35126;SDS011;21300;52.006;5.798;2024-03-06T06:48:49;16.48;;;9.57;;
35126;SDS011;21300;52.006;5.798;2024-03-06T06:51:14;17.35;;;10.38;;
35126;SDS011;21300;52.006;5.798;2024-03-06T06:53:40;20.48;;;11.10;;
35126;SDS011;21300;52.006;5.798;2024-03-06T06:56:06;18.27;;;9.77;;
35126;SDS011;21300;52.006;5.798;2024-03-06T06:58:33;20.20;;;10.55;;
35126;SDS011;21300;52.006;5.798;2024-03-06T07:00:58;19.33;;;10.35;;
35126;SDS011;21300;52.006;5.798;2024-03-06T07:03:25;22.85;;;12.15;;
35126;SDS011;21300;52.006;5.798;2024-03-06T07:05:54;23.08;;;11.63;;
35126;SDS011;21300;52.006;5.798;2024-03-06T07:08:22;21.98;;;11.85;;
35126;SDS011;21300;52.006;5.798;2024-03-06T07:10:47;22.52;;;12.40;;
35126;SDS011;21300;52.006;5.798;2024-03-06T07:13:13;21.35;;;11.85;;
35126;SDS011;21300;52.006;5.798;2024-03-06T07:15:39;23.65;;;12.27;;
35126;SDS011;21300;52.006;5.798;2024-03-06T07:18:04;24.73;;;13.15;;
35126;SDS011;21300;52.006;5.798;2024-03-06T07:20:30;21.88;;;12.05;;
35126;SDS011;21300;52.006;5.798;2024-03-06T07:22:56;24.60;;;12.95;;
35126;SDS011;21300;52.006;5.798;2024-03-06T07:25:23;23.63;;;12.75;;
35126;SDS011;21300;52.006;5.798;2024-03-06T07:27:48;28.42;;;14.57;;
35126;SDS011;21300;52.006;5.798;2024-03-06T07:30:14;27.00;;;14.13;;
35126;SDS011;21300;52.006;5.798;2024-03-06T07:32:40;32.10;;;15.55;;
35126;SDS011;21300;52.006;5.798;2024-03-06T07:35:06;36.28;;;17.95;;
35126;SDS011;21300;52.006;5.798;2024-03-06T07:37:32;41.08;;;19.67;;
35126;SDS011;21300;52.006;5.798;2024-03-06T07:39:58;37.95;;;20.20;;
35126;SDS011;21300;52.006;5.798;2024-03-06T07:42:25;40.63;;;19.35;;
35126;SDS011;21300;52.006;5.798;2024-03-06T07:44:51;37.30;;;18.50;;
35126;SDS011;21300;52.006;5.798;2024-03-06T07:47:16;40.78;;;19.27;;
35126;SDS011;21300;52.006;5.798;2024-03-06T07:49:42;37.08;;;19.15;;
35126;SDS011;21300;52.006;5.798;2024-03-06T07:52:09;41.90;;;19.60;;
35126;SDS011;21300;52.006;5.798;2024-03-06T07:54:35;41.85;;;20.90;;
35126;SDS011;21300;52.006;5.798;2024-03-06T07:57:01;39.40;;;18.73;;
35126;SDS011;21300;52.006;5.798;2024-03-06T07:59:27;40.45;;;21.10;;
35126;SDS011;21300;52.006;5.798;2024-03-06T08:01:52;54.05;;;22.85;;
35126;SDS011;21300;52.006;5.798;2024-03-06T08:04:18;40.22;;;21.48;;
35126;SDS011;21300;52.006;5.798;2024-03-06T08:06:43;37.97;;;19.92;;
35126;SDS011;21300;52.006;5.798;2024-03-06T08:09:09;45.35;;;21.00;;
35126;SDS011;21300;52.006;5.798;2024-03-06T08:11:36;45.85;;;21.63;;
35126;SDS011;21300;52.006;5.798;2024-03-06T08:14:01;44.67;;;21.42;;
35126;SDS011;21300;52.006;5.798;2024-03-06T08:16:27;39.45;;;22.00;;
35126;SDS011;21300;52.006;5.798;2024-03-06T08:18:53;43.22;;;22.05;;
35126;SDS011;21300;52.006;5.798;2024-03-06T08:21:20;43.90;;;20.65;;
35126;SDS011;21300;52.006;5.798;2024-03-06T08:23:45;38.65;;;21.50;;
35126;SDS011;21300;52.006;5.798;2024-03-06T08:26:14;45.40;;;22.58;;
35126;SDS011;21300;52.006;5.798;2024-03-06T08:28:40;45.92;;;21.08;;
35126;SDS011;21300;52.006;5.798;2024-03-06T08:31:05;39.03;;;20.58;;
35126;SDS011;21300;52.006;5.798;2024-03-06T08:33:31;51.08;;;22.77;;
35126;SDS011;21300;52.006;5.798;2024-03-06T08:35:57;47.60;;;22.38;;
35126;SDS011;21300;52.006;5.798;2024-03-06T08:38:23;45.35;;;22.92;;
35126;SDS011;21300;52.006;5.798;2024-03-06T08:40:49;47.00;;;23.13;;
35126;SDS011;21300;52.006;5.798;2024-03-06T08:43:15;51.22;;;23.55;;
35126;SDS011;21300;52.006;5.798;2024-03-06T08:45:41;51.00;;;25.00;;
35126;SDS011;21300;52.006;5.798;2024-03-06T08:48:07;54.35;;;25.55;;
35126;SDS011;21300;52.006;5.798;2024-03-06T08:50:34;47.72;;;24.02;;
35126;SDS011;21300;52.006;5.798;2024-03-06T08:53:00;49.28;;;24.58;;
35126;SDS011;21300;52.006;5.798;2024-03-06T08:55:27;48.53;;;23.80;;
35126;SDS011;21300;52.006;5.798;2024-03-06T08:57:53;49.75;;;24.42;;
35126;SDS011;21300;52.006;5.798;2024-03-06T09:00:19;48.95;;;23.65;;
35126;SDS011;21300;52.006;5.798;2024-03-06T09:02:45;56.67;;;25.65;;
35126;SDS011;21300;52.006;5.798;2024-03-06T09:05:10;52.83;;;25.60;;
35126;SDS011;21300;52.006;5.798;2024-03-06T09:07:38;52.08;;;26.25;;
35126;SDS011;21300;52.006;5.798;2024-03-06T09:10:15;52.67;;;25.08;;
35126;SDS011;21300;52.006;5.798;2024-03-06T09:15:06;50.40;;;22.95;;
35126;SDS011;21300;52.006;5.798;2024-03-06T09:17:32;57.38;;;24.30;;
35126;SDS011;21300;52.006;5.798;2024-03-06T09:19:58;57.88;;;25.85;;
35126;SDS011;21300;52.006;5.798;2024-03-06T09:22:23;54.40;;;25.90;;
35126;SDS011;21300;52.006;5.798;2024-03-06T09:24:49;60.30;;;25.50;;
35126;SDS011;21300;52.006;5.798;2024-03-06T09:27:15;59.95;;;25.15;;
35126;SDS011;21300;52.006;5.798;2024-03-06T09:29:42;54.47;;;24.60;;
35126;SDS011;21300;52.006;5.798;2024-03-06T09:32:08;56.17;;;25.95;;
35126;SDS011;21300;52.006;5.798;2024-03-06T09:34:33;52.03;;;25.33;;
35126;SDS011;21300;52.006;5.798;2024-03-06T09:36:59;54.70;;;25.92;;
35126;SDS011;21300;52.006;5.798;2024-03-06T09:39:25;56.63;;;24.73;;
35126;SDS011;21300;52.006;5.798;2024-03-06T09:41:50;55.05;;;25.02;;
35126;SDS011;21300;52.006;5.798;2024-03-06T09:44:17;57.20;;;25.38;;
35126;SDS011;21300;52.006;5.798;2024-03-06T09:46:43;52.42;;;25.67;;
35126;SDS011;21300;52.006;5.798;2024-03-06T09:49:14;50.53;;;24.15;;
35126;SDS011;21300;52.006;5.798;2024-03-06T09:51:45;49.63;;;25.38;;
35126;SDS011;21300;52.006;5.798;2024-03-06T09:54:13;53.70;;;24.98;;
35126;SDS011;21300;52.006;5.798;2024-03-06T09:56:42;48.85;;;24.15;;
35126;SDS011;21300;52.006;5.798;2024-03-06T09:59:09;49.47;;;24.10;;
35126;SDS011;21300;52.006;5.798;2024-03-06T10:01:38;57.58;;;26.33;;
35126;SDS011;21300;52.006;5.798;2024-03-06T10:04:27;52.08;;;23.70;;
35126;SDS011;21300;52.006;5.798;2024-03-06T10:06:54;56.97;;;25.20;;
35126;SDS011;21300;52.006;5.798;2024-03-06T10:09:23;52.83;;;24.42;;
35126;SDS011;21300;52.006;5.798;2024-03-06T10:11:50;55.45;;;26.83;;
35126;SDS011;21300;52.006;5.798;2024-03-06T10:14:18;53.58;;;25.20;;
35126;SDS011;21300;52.006;5.798;2024-03-06T10:16:51;52.40;;;25.35;;
35126;SDS011;21300;52.006;5.798;2024-03-06T10:19:24;53.05;;;23.42;;
35126;SDS011;21300;52.006;5.798;2024-03-06T10:21:52;56.72;;;26.25;;
35126;SDS011;21300;52.006;5.798;2024-03-06T10:24:21;55.97;;;26.25;;
35126;SDS011;21300;52.006;5.798;2024-03-06T10:26:52;54.78;;;25.13;;
35126;SDS011;21300;52.006;5.798;2024-03-06T10:29:21;54.97;;;25.75;;
35126;SDS011;21300;52.006;5.798;2024-03-06T10:31:48;60.05;;;27.02;;
35126;SDS011;21300;52.006;5.798;2024-03-06T10:34:14;61.75;;;26.48;;
35126;SDS011;21300;52.006;5.798;2024-03-06T10:36:41;57.33;;;26.42;;
35126;SDS011;21300;52.006;5.798;2024-03-06T10:39:08;61.35;;;28.02;;
35126;SDS011;21300;52.006;5.798;2024-03-06T10:41:39;59.60;;;27.13;;
35126;SDS011;21300;52.006;5.798;2024-03-06T10:44:11;66.05;;;28.20;;
35126;SDS011;21300;52.006;5.798;2024-03-06T10:46:42;63.60;;;27.67;;
35126;SDS011;21300;52.006;5.798;2024-03-06T10:49:12;66.40;;;28.52;;
35126;SDS011;21300;52.006;5.798;2024-03-06T10:51:40;67.18;;;28.77;;
35126;SDS011;21300;52.006;5.798;2024-03-06T10:54:09;70.68;;;28.90;;
35126;SDS011;21300;52.006;5.798;2024-03-06T10:56:38;70.68;;;30.45;;
35126;SDS011;21300;52.006;5.798;2024-03-06T10:59:09;68.28;;;28.88;;
35126;SDS011;21300;52.006;5.798;2024-03-06T11:01:38;69.28;;;29.83;;
35126;SDS011;21300;52.006;5.798;2024-03-06T11:04:05;68.68;;;28.75;;
35126;SDS011;21300;52.006;5.798;2024-03-06T11:06:32;59.53;;;27.35;;
35126;SDS011;21300;52.006;5.798;2024-03-06T11:08:59;61.55;;;27.50;;
35126;SDS011;21300;52.006;5.798;2024-03-06T11:11:27;64.90;;;28.50;;
35126;SDS011;21300;52.006;5.798;2024-03-06T11:13:59;57.25;;;26.75;;
35126;SDS011;21300;52.006;5.798;2024-03-06T11:16:29;62.17;;;27.98;;
35126;SDS011;21300;52.006;5.798;2024-03-06T11:19:07;63.42;;;29.63;;
35126;SDS011;21300;52.006;5.798;2024-03-06T11:21:34;67.25;;;28.02;;
35126;SDS011;21300;52.006;5.798;2024-03-06T11:26:46;59.25;;;26.92;;
35126;SDS011;21300;52.006;5.798;2024-03-06T11:29:27;60.67;;;26.90;;
35126;SDS011;21300;52.006;5.798;2024-03-06T11:32:00;67.15;;;27.88;;
35126;SDS011;21300;52.006;5.798;2024-03-06T11:34:32;59.55;;;28.05;;
35126;SDS011;21300;52.006;5.798;2024-03-06T11:37:08;56.63;;;27.17;;
35126;SDS011;21300;52.006;5.798;2024-03-06T11:42:03;62.90;;;27.10;;
35126;SDS011;21300;52.006;5.798;2024-03-06T11:44:36;60.85;;;25.95;;
35126;SDS011;21300;52.006;5.798;2024-03-06T11:47:03;65.22;;;28.80;;
35126;SDS011;21300;52.006;5.798;2024-03-06T11:49:30;58.80;;;27.25;;
35126;SDS011;21300;52.006;5.798;2024-03-06T11:52:06;60.20;;;27.67;;
35126;SDS011;21300;52.006;5.798;2024-03-06T11:54:35;56.70;;;26.48;;
35126;SDS011;21300;52.006;5.798;2024-03-06T11:57:03;63.80;;;27.40;;
35126;SDS011;21300;52.006;5.798;2024-03-06T11:59:31;63.70;;;27.88;;
35126;SDS011;21300;52.006;5.798;2024-03-06T12:02:01;62.58;;;26.88;;
35126;SDS011;21300;52.006;5.798;2024-03-06T12:04:33;57.08;;;25.58;;
35126;SDS011;21300;52.006;5.798;2024-03-06T12:07:01;55.78;;;26.13;;
35126;SDS011;21300;52.006;5.798;2024-03-06T12:09:31;56.88;;;25.60;;
35126;SDS011;21300;52.006;5.798;2024-03-06T12:12:01;56.10;;;27.08;;
35126;SDS011;21300;52.006;5.798;2024-03-06T12:14:28;54.28;;;25.23;;
35126;SDS011;21300;52.006;5.798;2024-03-06T12:16:54;54.92;;;25.52;;
35126;SDS011;21300;52.006;5.798;2024-03-06T12:19:33;60.35;;;27.90;;
35126;SDS011;21300;52.006;5.798;2024-03-06T12:22:00;54.83;;;25.20;;
35126;SDS011;21300;52.006;5.798;2024-03-06T12:24:28;62.22;;;29.25;;
35126;SDS011;21300;52.006;5.798;2024-03-06T12:27:00;55.53;;;27.20;;
35126;SDS011;21300;52.006;5.798;2024-03-06T12:29:31;62.78;;;29.10;;
35126;SDS011;21300;52.006;5.798;2024-03-06T12:31:58;54.90;;;27.45;;
35126;SDS011;21300;52.006;5.798;2024-03-06T12:34:24;53.42;;;25.73;;
35126;SDS011;21300;52.006;5.798;2024-03-06T12:36:50;60.55;;;26.42;;
35126;SDS011;21300;52.006;5.798;2024-03-06T12:39:16;58.10;;;26.52;;
35126;SDS011;21300;52.006;5.798;2024-03-06T12:41:51;55.38;;;24.88;;
35126;SDS011;21300;52.006;5.798;2024-03-06T12:44:19;49.80;;;24.20;;
35126;SDS011;21300;52.006;5.798;2024-03-06T12:46:45;49.58;;;23.52;;
35126;SDS011;21300;52.006;5.798;2024-03-06T12:49:11;46.08;;;20.98;;
35126;SDS011;21300;52.006;5.798;2024-03-06T12:51:36;43.25;;;21.30;;
35126;SDS011;21300;52.006;5.798;2024-03-06T12:54:02;51.05;;;24.65;;
35126;SDS011;21300;52.006;5.798;2024-03-06T12:56:31;45.97;;;23.30;;
35126;SDS011;21300;52.006;5.798;2024-03-06T12:58:57;45.83;;;21.75;;
35126;SDS011;21300;52.006;5.798;2024-03-06T13:01:22;43.55;;;21.40;;
35126;SDS011;21300;52.006;5.798;2024-03-06T13:03:48;42.92;;;21.38;;
35126;SDS011;21300;52.006;5.798;2024-03-06T13:06:14;41.28;;;19.38;;
35126;SDS011;21300;52.006;5.798;2024-03-06T13:08:40;39.70;;;19.98;;
35126;SDS011;21300;52.006;5.798;2024-03-06T13:11:05;37.90;;;18.40;;
35126;SDS011;21300;52.006;5.798;2024-03-06T13:13:31;29.88;;;15.55;;
35126;SDS011;21300;52.006;5.798;2024-03-06T13:15:59;29.38;;;14.98;;
35126;SDS011;21300;52.006;5.798;2024-03-06T13:18:25;23.13;;;12.77;;
35126;SDS011;21300;52.006;5.798;2024-03-06T13:20:51;21.58;;;11.20;;
35126;SDS011;21300;52.006;5.798;2024-03-06T13:23:16;20.08;;;11.23;;
35126;SDS011;21300;52.006;5.798;2024-03-06T13:25:42;23.08;;;12.98;;
35126;SDS011;21300;52.006;5.798;2024-03-06T13:28:08;24.13;;;12.93;;
35126;SDS011;21300;52.006;5.798;2024-03-06T13:30:34;20.00;;;11.10;;
35126;SDS011;21300;52.006;5.798;2024-03-06T13:33:00;17.15;;;9.40;;
35126;SDS011;21300;52.006;5.798;2024-03-06T13:35:26;20.58;;;10.90;;
35126;SDS011;21300;52.006;5.798;2024-03-06T13:37:51;17.60;;;9.52;;
35126;SDS011;21300;52.006;5.798;2024-03-06T13:40:18;26.25;;;12.18;;
35126;SDS011;21300;52.006;5.798;2024-03-06T13:42:44;26.38;;;12.38;;
35126;SDS011;21300;52.006;5.798;2024-03-06T13:45:11;20.45;;;10.95;;
35126;SDS011;21300;52.006;5.798;2024-03-06T13:47:37;22.98;;;11.85;;
35126;SDS011;21300;52.006;5.798;2024-03-06T13:50:10;17.05;;;9.70;;
35126;SDS011;21300;52.006;5.798;2024-03-06T13:52:38;20.13;;;10.20;;
35126;SDS011;21300;52.006;5.798;2024-03-06T13:55:04;16.42;;;9.32;;
35126;SDS011;21300;52.006;5.798;2024-03-06T13:57:31;16.83;;;8.90;;
35126;SDS011;21300;52.006;5.798;2024-03-06T13:59:59;16.15;;;9.80;;
35126;SDS011;21300;52.006;5.798;2024-03-06T14:02:25;18.38;;;10.63;;
35126;SDS011;21300;52.006;5.798;2024-03-06T14:04:51;23.77;;;10.88;;
35126;SDS011;21300;52.006;5.798;2024-03-06T14:07:17;19.10;;;10.73;;
35126;SDS011;21300;52.006;5.798;2024-03-06T14:09:43;18.98;;;10.88;;
35126;SDS011;21300;52.006;5.798;2024-03-06T14:12:08;18.48;;;9.57;;
35126;SDS011;21300;52.006;5.798;2024-03-06T14:14:34;14.70;;;9.48;;
35126;SDS011;21300;52.006;5.798;2024-03-06T14:17:00;18.70;;;9.70;;
35126;SDS011;21300;52.006;5.798;2024-03-06T14:19:25;22.05;;;10.98;;
35126;SDS011;21300;52.006;5.798;2024-03-06T14:21:51;21.20;;;11.40;;
35126;SDS011;21300;52.006;5.798;2024-03-06T14:24:17;22.40;;;11.77;;
35126;SDS011;21300;52.006;5.798;2024-03-06T14:26:43;21.17;;;11.45;;
35126;SDS011;21300;52.006;5.798;2024-03-06T14:29:09;21.48;;;11.00;;
35126;SDS011;21300;52.006;5.798;2024-03-06T14:31:35;23.20;;;12.07;;